createdAt,value
2018-07-20T00:00:33.897Z,81.45
2018-07-20T00:03:07.990Z,81.67
2018-07-20T00:05:41.850Z,81.87
2018-07-20T00:08:15.842Z,81.87
2018-07-20T00:10:49.710Z,81.76
2018-07-20T00:13:23.827Z,82.60
2018-07-20T00:15:57.688Z,82.44
2018-07-20T00:18:31.692Z,82.69
2018-07-20T00:21:05.730Z,82.17
2018-07-20T00:23:39.872Z,82.19
2018-07-20T00:26:13.924Z,82.29
2018-07-20T00:28:47.990Z,82.77
2018-07-20T00:31:22.027Z,84.28
2018-07-20T00:33:56.145Z,84.78
2018-07-20T00:36:30.134Z,85.75
2018-07-20T00:39:06.165Z,85.60
2018-07-20T00:41:40.389Z,86.47
2018-07-20T00:44:14.277Z,87.80
2018-07-20T00:46:48.245Z,87.52
2018-07-20T00:49:22.346Z,85.86
2018-07-20T00:51:56.440Z,85.34
2018-07-20T00:54:30.473Z,84.84
2018-07-20T00:57:05.389Z,84.31
2018-07-20T00:59:39.281Z,84.39
2018-07-20T01:02:13.369Z,84.68
2018-07-20T01:04:47.322Z,84.84
2018-07-20T01:07:21.205Z,84.60
2018-07-20T01:09:55.384Z,84.88
2018-07-20T01:12:29.633Z,84.26
2018-07-20T01:15:03.637Z,84.66
2018-07-20T01:17:37.526Z,84.30
2018-07-20T01:20:11.568Z,84.58
2018-07-20T01:22:45.416Z,84.84
2018-07-20T01:25:19.555Z,84.91
2018-07-20T01:27:53.641Z,84.01
2018-07-20T01:30:27.680Z,84.63
2018-07-20T01:33:01.500Z,84.87
2018-07-20T01:35:35.549Z,85.81
2018-07-20T01:38:09.618Z,85.18
2018-07-20T01:40:43.604Z,85.39
2018-07-20T01:43:17.498Z,85.02
2018-07-20T01:45:51.519Z,86.31
2018-07-20T01:48:25.472Z,87.11
2018-07-20T01:50:59.406Z,87.08
2018-07-20T01:53:33.295Z,87.39
2018-07-20T01:56:07.332Z,87.77
2018-07-20T01:58:41.247Z,88.03
2018-07-20T02:01:18.318Z,87.41
2018-07-20T02:03:52.413Z,87.30
2018-07-20T02:06:26.608Z,86.72
2018-07-20T02:09:00.449Z,85.78
2018-07-20T02:11:34.419Z,85.75
2018-07-20T02:14:08.397Z,85.57
2018-07-20T02:16:42.410Z,85.21
2018-07-20T02:19:16.382Z,85.69
2018-07-20T02:21:50.350Z,85.45
2018-07-20T02:24:24.186Z,85.04
2018-07-20T02:26:58.381Z,86.27
2018-07-20T02:29:32.294Z,85.70
2018-07-20T02:32:06.275Z,87.52
2018-07-20T02:34:40.134Z,86.21
2018-07-20T02:37:14.576Z,87.19
2018-07-20T02:39:48.416Z,88.55
2018-07-20T02:42:22.510Z,89.57
2018-07-20T02:44:56.341Z,90.24
2018-07-20T02:47:30.278Z,91.25
2018-07-20T02:50:04.349Z,89.78
2018-07-20T02:52:38.326Z,89.71
2018-07-20T02:55:12.251Z,88.09
2018-07-20T02:57:46.226Z,87.49
2018-07-20T03:00:20.188Z,88.03
2018-07-20T03:02:54.183Z,88.60
2018-07-20T03:05:28.122Z,88.48
2018-07-20T03:08:02.125Z,87.66
2018-07-20T03:10:36.022Z,88.42
2018-07-20T03:13:10.014Z,87.19
2018-07-20T03:15:43.860Z,87.01
2018-07-20T03:18:17.912Z,86.34
2018-07-20T03:20:51.843Z,86.06
2018-07-20T03:23:25.880Z,86.08
2018-07-20T03:25:59.939Z,84.99
2018-07-20T03:28:36.163Z,85.02
2018-07-20T03:31:10.276Z,86.14
2018-07-20T03:33:44.246Z,86.87
2018-07-20T03:36:18.249Z,87.72
2018-07-20T03:38:52.240Z,87.92
2018-07-20T03:41:26.160Z,87.38
2018-07-20T03:44:00.260Z,86.56
2018-07-20T03:46:34.262Z,86.42
2018-07-20T03:49:08.263Z,85.64
2018-07-20T03:51:42.187Z,85.20
2018-07-20T03:54:16.146Z,85.33
2018-07-20T03:56:50.412Z,84.84
2018-07-20T03:59:24.505Z,84.03
2018-07-20T04:01:58.557Z,85.92
2018-07-20T04:04:32.577Z,87.02
2018-07-20T04:07:06.541Z,86.54
2018-07-20T04:09:40.478Z,85.80
2018-07-20T04:12:14.422Z,84.35
2018-07-20T04:14:48.645Z,84.80
2018-07-20T04:17:22.697Z,84.57
2018-07-20T04:19:56.627Z,85.01
2018-07-20T04:22:30.719Z,84.23
2018-07-20T04:25:05.036Z,82.57
2018-07-20T04:27:38.872Z,83.29
2018-07-20T04:30:13.877Z,82.85
2018-07-20T04:32:47.832Z,83.07
2018-07-20T04:35:21.801Z,81.85
2018-07-20T04:37:55.705Z,82.65
2018-07-20T04:40:29.925Z,80.75
2018-07-20T04:43:03.733Z,79.57
2018-07-20T04:45:37.813Z,78.54
2018-07-20T04:48:11.917Z,78.29
2018-07-20T04:50:45.930Z,78.27
2018-07-20T04:53:19.811Z,76.82
2018-07-20T04:55:53.828Z,75.54
2018-07-20T04:58:27.762Z,75.43
2018-07-20T05:01:01.881Z,73.01
2018-07-20T05:03:35.804Z,72.51
2018-07-20T05:06:09.825Z,71.34
2018-07-20T05:08:43.736Z,70.77
2018-07-20T05:11:17.646Z,68.81
2018-07-20T05:13:51.529Z,69.95
2018-07-20T05:16:25.497Z,68.20
2018-07-20T05:18:59.331Z,68.72
2018-07-20T05:21:33.456Z,67.65
2018-07-20T05:24:07.484Z,67.74
2018-07-20T05:26:41.559Z,68.26
2018-07-20T05:29:15.559Z,68.94
2018-07-20T05:31:49.743Z,67.33
2018-07-20T05:34:23.841Z,66.70
2018-07-20T05:36:57.944Z,64.12
2018-07-20T05:39:32.042Z,64.33
2018-07-20T05:42:06.528Z,63.93
2018-07-20T05:44:40.605Z,63.67
2018-07-20T05:47:14.902Z,64.63
2018-07-20T05:49:48.787Z,64.71
2018-07-20T05:52:22.928Z,63.97
2018-07-20T05:54:56.828Z,64.59
2018-07-20T05:57:30.817Z,65.62
2018-07-20T06:00:05.223Z,65.48
2018-07-20T06:02:40.295Z,65.73
2018-07-20T06:05:14.177Z,64.69
2018-07-20T06:07:48.256Z,64.87
2018-07-20T06:10:22.464Z,65.42
2018-07-20T06:12:56.579Z,65.05
2018-07-20T06:15:24.364Z,64.83
2018-07-20T06:17:52.165Z,65.45
2018-07-20T06:20:20.232Z,64.86
2018-07-20T06:24:12.440Z,64.22
2018-07-20T06:26:40.396Z,63.56
2018-07-20T06:29:08.205Z,63.17
2018-07-20T06:31:36.041Z,62.73
2018-07-20T06:34:04.465Z,61.14
2018-07-20T06:36:32.355Z,61.67
2018-07-20T06:39:00.148Z,60.69
2018-07-20T06:41:29.223Z,60.96
2018-07-20T06:43:57.046Z,60.64
2018-07-20T06:46:24.935Z,62.61
2018-07-20T06:48:52.851Z,63.01
2018-07-20T06:51:20.733Z,62.04
2018-07-20T06:53:48.608Z,62.79
2018-07-20T06:56:16.597Z,61.21
2018-07-20T06:58:44.486Z,60.49
2018-07-20T07:01:12.363Z,60.36
2018-07-20T07:03:40.645Z,59.70
2018-07-20T07:06:08.522Z,59.62
2018-07-20T07:08:36.401Z,60.08
2018-07-20T07:11:04.349Z,59.85
2018-07-20T07:13:32.265Z,59.61
2018-07-20T07:16:00.178Z,59.67
2018-07-20T07:18:28.201Z,58.81
2018-07-20T07:20:56.273Z,58.84
2018-07-20T07:23:24.157Z,58.80
2018-07-20T07:25:52.752Z,57.43
2018-07-20T07:28:20.606Z,57.30
2018-07-20T07:30:48.484Z,56.11
2018-07-20T07:33:16.400Z,57.43
2018-07-20T07:35:44.714Z,57.06
2018-07-20T07:38:12.649Z,56.35
2018-07-20T07:40:40.587Z,55.52
2018-07-20T07:43:08.491Z,55.33
2018-07-20T07:45:36.374Z,55.62
2018-07-20T07:48:04.604Z,55.15
2018-07-20T07:50:32.486Z,54.98
2018-07-20T07:53:00.365Z,55.09
2018-07-20T07:55:28.262Z,54.00
2018-07-20T07:57:56.148Z,54.55
2018-07-20T08:00:24.023Z,54.34
2018-07-20T08:02:51.950Z,54.17
2018-07-20T08:05:19.844Z,54.13
2018-07-20T08:07:47.725Z,52.32
2018-07-20T08:10:15.999Z,52.60
2018-07-20T08:12:43.890Z,53.00
2018-07-20T08:22:13.160Z,52.62
2018-07-20T08:24:41.034Z,52.47
2018-07-20T08:27:08.924Z,52.15
2018-07-20T08:29:37.099Z,51.93
2018-07-20T08:32:05.061Z,52.18
2018-07-20T08:34:32.970Z,51.89
2018-07-20T08:37:01.403Z,51.01
2018-07-20T08:39:29.286Z,49.00
2018-07-20T08:41:57.196Z,49.57
2018-07-20T08:44:25.091Z,49.97
2018-07-20T08:46:53.237Z,49.54
2018-07-20T08:49:21.115Z,48.93
2018-07-20T08:51:49.238Z,47.75
2018-07-20T08:54:17.145Z,48.07
2018-07-20T08:56:45.093Z,49.53
2018-07-20T08:59:13.139Z,48.44
2018-07-20T09:01:41.008Z,48.60
2018-07-20T09:04:08.919Z,49.67
2018-07-20T09:06:37.445Z,48.95
2018-07-20T09:09:07.017Z,49.22
2018-07-20T09:11:34.904Z,48.03
2018-07-20T09:14:03.334Z,47.31
2018-07-20T09:16:31.208Z,48.91
2018-07-20T09:19:04.540Z,46.47
2018-07-20T09:21:32.464Z,48.53
2018-07-20T09:24:00.366Z,47.55
2018-07-20T09:26:28.615Z,47.17
2018-07-20T09:35:52.873Z,44.90
2018-07-20T09:38:33.105Z,43.99
2018-07-20T09:41:01.349Z,46.13
2018-07-20T09:43:29.229Z,45.79
2018-07-20T09:45:57.116Z,46.60
2018-07-20T09:48:25.046Z,45.30
2018-07-20T09:50:52.964Z,44.33
2018-07-20T09:53:20.862Z,46.47
2018-07-20T09:55:49.011Z,45.69
2018-07-20T09:58:16.925Z,45.65
2018-07-20T10:00:48.601Z,46.19
2018-07-20T10:03:16.746Z,45.24
2018-07-20T10:05:44.808Z,46.23
2018-07-20T10:08:12.771Z,46.97
2018-07-20T10:10:40.714Z,46.08
2018-07-20T10:13:08.687Z,45.68
2018-07-20T10:15:36.615Z,44.78
2018-07-20T10:18:04.959Z,44.91
2018-07-20T10:20:32.873Z,44.25
2018-07-20T10:23:01.121Z,44.84
2018-07-20T10:25:29.176Z,43.66
2018-07-20T10:27:57.647Z,45.53
2018-07-20T10:30:25.529Z,45.00
2018-07-20T10:32:53.446Z,45.28
2018-07-20T10:35:21.353Z,45.41
2018-07-20T10:37:49.227Z,45.49
2018-07-20T10:40:17.364Z,44.66
2018-07-20T10:42:45.648Z,44.19
2018-07-20T10:45:13.515Z,46.22
2018-07-20T10:47:41.428Z,45.07
2018-07-20T10:50:09.354Z,44.13
2018-07-20T10:52:37.286Z,45.13
2018-07-20T10:55:05.304Z,44.68
2018-07-20T10:57:33.169Z,43.81
2018-07-20T11:00:01.044Z,44.64
2018-07-20T11:02:29.341Z,44.35
2018-07-20T11:04:57.250Z,43.59
2018-07-20T11:07:25.131Z,42.44
2018-07-20T11:09:53.090Z,44.87
2018-07-20T11:12:20.988Z,45.62
2018-07-20T11:14:49.507Z,43.87
2018-07-20T11:17:17.430Z,44.73
2018-07-20T11:19:45.298Z,42.95
2018-07-20T11:22:13.280Z,43.32
2018-07-20T11:24:41.543Z,43.30
2018-07-20T11:27:09.430Z,43.95
2018-07-20T11:29:37.454Z,42.91
2018-07-20T11:32:05.498Z,43.30
2018-07-20T11:34:33.374Z,43.16
2018-07-20T11:37:01.310Z,42.29
2018-07-20T11:39:29.304Z,42.00
2018-07-20T11:41:57.261Z,41.89
2018-07-20T11:44:25.379Z,41.28
2018-07-20T11:46:53.565Z,42.08
2018-07-20T11:49:36.516Z,41.86
2018-07-20T11:52:04.503Z,41.47
2018-07-20T11:54:32.396Z,42.24
2018-07-20T11:57:00.273Z,41.59
2018-07-20T11:59:28.179Z,41.71
2018-07-20T12:01:56.066Z,42.46
2018-07-20T12:04:23.969Z,42.10
2018-07-20T12:06:52.158Z,41.59
2018-07-20T12:09:20.059Z,42.49
2018-07-20T12:11:47.982Z,41.74
2018-07-20T12:14:15.912Z,42.18
2018-07-20T12:16:43.791Z,41.65
2018-07-20T12:19:11.665Z,41.44
2018-07-20T12:21:39.656Z,42.56
2018-07-20T12:24:07.553Z,42.79
2018-07-20T12:26:35.457Z,42.77
2018-07-20T12:29:03.637Z,40.79
2018-07-20T12:31:31.513Z,41.34
2018-07-20T12:33:59.438Z,42.62
2018-07-20T12:36:27.465Z,41.87
2018-07-20T12:39:00.041Z,41.56
2018-07-20T12:41:27.969Z,41.41
2018-07-20T12:43:55.892Z,41.94
2018-07-20T12:46:24.037Z,41.28
2018-07-20T12:48:52.210Z,42.94
2018-07-20T12:51:20.200Z,41.57
2018-07-20T12:53:48.127Z,40.90
2018-07-20T12:57:40.454Z,41.00
2018-07-20T13:00:08.335Z,40.38
2018-07-20T13:02:36.242Z,40.42
2018-07-20T13:05:04.883Z,39.63
2018-07-20T13:07:32.792Z,40.04
2018-07-20T13:10:00.678Z,40.21
2018-07-20T13:12:28.601Z,41.15
2018-07-20T13:14:56.520Z,41.96
2018-07-20T13:17:24.552Z,42.26
2018-07-20T13:19:52.556Z,41.24
2018-07-20T13:22:20.462Z,42.67
2018-07-20T13:24:48.361Z,43.54
2018-07-20T13:27:16.645Z,44.99
2018-07-20T13:29:44.549Z,44.94
2018-07-20T13:32:12.605Z,43.50
2018-07-20T13:34:40.702Z,44.05
2018-07-20T13:37:08.613Z,45.68
2018-07-20T13:39:36.592Z,46.42
2018-07-20T13:42:04.589Z,45.85
2018-07-20T13:44:32.553Z,46.11
2018-07-20T13:47:01.522Z,46.54
2018-07-20T13:49:29.717Z,45.48
2018-07-20T13:51:57.575Z,45.66
2018-07-20T13:54:25.462Z,45.71
2018-07-20T13:56:53.508Z,46.72
2018-07-20T13:59:21.504Z,47.65
2018-07-20T14:01:49.428Z,47.23
2018-07-20T14:04:17.392Z,47.30
2018-07-20T14:06:45.424Z,47.23
2018-07-20T14:09:13.316Z,48.65
2018-07-20T14:11:41.573Z,47.34
2018-07-20T14:14:10.038Z,46.71
2018-07-20T14:16:38.910Z,47.39
2018-07-20T14:19:07.007Z,45.75
2018-07-20T14:21:35.021Z,45.91
2018-07-20T14:24:03.293Z,46.08
2018-07-20T14:26:31.333Z,47.10
2018-07-20T14:28:59.266Z,48.41
2018-07-20T14:31:27.199Z,48.89
2018-07-20T14:33:55.702Z,48.41
2018-07-20T14:36:23.571Z,48.50
2018-07-20T14:38:51.530Z,48.99
2018-07-20T14:41:19.566Z,49.31
2018-07-20T14:43:47.429Z,48.40
2018-07-20T14:46:15.370Z,48.66
2018-07-20T14:48:43.785Z,47.59
2018-07-20T14:54:03.387Z,47.31
2018-07-20T14:56:31.277Z,46.51
2018-07-20T14:58:59.135Z,43.94
2018-07-20T15:01:27.079Z,44.06
2018-07-20T15:03:54.964Z,42.81
2018-07-20T15:06:22.836Z,43.97
2018-07-20T15:08:50.737Z,44.82
2018-07-20T15:11:18.684Z,46.32
2018-07-20T15:13:46.565Z,47.06
2018-07-20T15:16:14.757Z,47.60
2018-07-20T15:18:42.619Z,47.45
2018-07-20T15:21:10.497Z,48.05
2018-07-20T15:23:38.468Z,47.90
2018-07-20T15:26:06.352Z,48.63
2018-07-20T15:28:34.235Z,48.56
2018-07-20T15:31:02.156Z,48.46
2018-07-20T15:33:30.040Z,48.62
2018-07-20T15:35:57.941Z,48.69
2018-07-20T15:38:26.194Z,48.89
2018-07-20T15:40:54.073Z,49.73
2018-07-20T15:43:22.010Z,48.97
2018-07-20T15:46:05.768Z,49.95
2018-07-20T15:48:17.826Z,49.40
2018-07-20T15:50:46.046Z,48.96
2018-07-20T15:53:40.525Z,49.05
2018-07-20T15:55:42.043Z,49.21
2018-07-20T15:58:09.916Z,49.14
2018-07-20T16:00:38.057Z,49.21
2018-07-20T16:03:06.030Z,48.60
2018-07-20T16:05:33.938Z,48.53
2018-07-20T16:08:01.851Z,48.93
2018-07-20T16:10:29.738Z,49.80
2018-07-20T16:12:57.647Z,49.46
2018-07-20T16:15:25.592Z,49.28
2018-07-20T16:17:53.476Z,49.26
2018-07-20T16:20:21.492Z,48.77
2018-07-20T16:22:50.259Z,48.51
2018-07-20T16:25:18.172Z,48.74
2018-07-20T16:27:46.305Z,49.02
2018-07-20T16:30:14.250Z,49.19
2018-07-20T16:32:42.140Z,49.94
2018-07-20T16:35:10.512Z,49.76
2018-07-20T16:37:38.447Z,49.97
2018-07-20T16:40:06.380Z,49.71
2018-07-20T16:42:34.812Z,49.43
2018-07-20T16:45:03.141Z,50.35
2018-07-20T16:47:31.065Z,51.11
2018-07-20T16:49:58.967Z,51.05
2018-07-20T16:52:27.156Z,51.38
2018-07-20T16:54:55.178Z,51.46
2018-07-20T16:57:23.089Z,51.03
2018-07-20T16:59:51.093Z,51.69
2018-07-20T17:02:18.997Z,51.85
2018-07-20T17:04:46.949Z,52.18
2018-07-20T17:09:48.903Z,50.07
2018-07-20T17:12:16.798Z,50.13
2018-07-20T17:14:45.695Z,49.43
2018-07-20T17:17:13.589Z,50.09
2018-07-20T17:19:41.583Z,49.78
2018-07-20T17:22:09.527Z,50.22
2018-07-20T18:31:07.273Z,55.33
2018-07-20T18:33:35.291Z,54.96
2018-07-20T18:36:03.431Z,55.29
2018-07-20T18:38:31.371Z,55.50
2018-07-20T18:42:23.665Z,55.99
2018-07-20T18:44:51.624Z,56.05
2018-07-20T18:47:19.485Z,56.10
2018-07-20T18:49:47.407Z,56.27
2018-07-20T18:52:15.673Z,56.56
2018-07-20T18:54:43.559Z,56.81
2018-07-20T18:57:11.438Z,56.03
2018-07-20T18:59:39.393Z,56.51
2018-07-20T19:02:07.748Z,56.12
2018-07-20T19:04:35.661Z,56.33
2018-07-20T19:07:03.719Z,56.16
2018-07-20T19:09:31.607Z,56.28
2018-07-20T19:11:59.550Z,56.49
2018-07-20T19:14:27.689Z,56.48
2018-07-20T19:16:55.665Z,56.62
2018-07-20T19:19:23.574Z,57.26
2018-07-20T19:21:51.539Z,57.16
2018-07-20T19:24:19.456Z,57.57
2018-07-20T19:26:47.504Z,57.90
2018-07-20T19:29:15.425Z,57.16
2018-07-20T19:31:43.648Z,56.54
2018-07-20T19:34:11.633Z,56.81
2018-07-20T19:44:21.204Z,57.81
2018-07-20T19:46:49.103Z,57.87
2018-07-20T19:49:17.003Z,58.62
2018-07-20T19:51:45.776Z,58.09
2018-07-20T19:54:13.676Z,57.66
2018-07-20T19:56:41.576Z,58.13
2018-07-20T19:59:14.697Z,58.63
2018-07-20T20:01:42.601Z,58.99
2018-07-20T20:04:10.804Z,59.20
2018-07-20T20:06:39.395Z,59.55
2018-07-20T20:09:09.074Z,59.78
2018-07-20T20:11:37.536Z,60.60
2018-07-20T20:14:05.493Z,60.53
2018-07-20T20:16:33.444Z,61.09
2018-07-20T20:19:01.488Z,60.38
2018-07-20T20:21:29.438Z,61.66
2018-07-20T20:23:57.416Z,62.41
2018-07-20T20:26:25.285Z,62.23
2018-07-20T20:28:53.574Z,62.77
2018-07-20T20:31:21.472Z,63.25
2018-07-20T20:33:49.837Z,63.84
2018-07-20T20:36:17.780Z,64.51
2018-07-20T20:38:45.674Z,65.26
2018-07-20T20:41:13.597Z,65.02
2018-07-20T20:43:41.617Z,65.58
2018-07-20T20:46:09.603Z,65.28
2018-07-20T20:48:37.640Z,65.90
2018-07-20T20:51:06.305Z,65.46
2018-07-20T20:53:34.210Z,65.65
2018-07-20T20:56:02.089Z,65.46
2018-07-20T20:58:30.008Z,66.19
2018-07-20T21:00:57.909Z,65.98
2018-07-20T21:03:25.829Z,65.50
2018-07-20T21:05:53.780Z,66.34
2018-07-20T21:08:21.660Z,66.26
2018-07-20T21:10:49.537Z,66.84
2018-07-20T21:13:17.981Z,66.22
2018-07-20T21:15:45.857Z,66.00
2018-07-20T21:18:13.740Z,66.55
2018-07-20T21:20:41.693Z,66.50
2018-07-20T21:23:09.568Z,66.43
2018-07-20T21:25:37.479Z,65.10
2018-07-20T21:28:05.525Z,64.76
2018-07-20T21:30:33.545Z,65.17
2018-07-20T21:33:01.482Z,66.18
2018-07-20T21:56:02.364Z,66.39
2018-07-20T21:58:30.248Z,66.82
2018-07-20T22:00:58.259Z,66.58
2018-07-20T22:03:26.169Z,67.13
2018-07-20T22:05:54.048Z,68.34
2018-07-20T22:08:22.041Z,67.96
2018-07-20T22:10:49.919Z,67.60
2018-07-20T22:13:17.801Z,68.28
2018-07-20T22:15:46.030Z,68.12
2018-07-20T22:18:13.916Z,68.56
2018-07-20T22:20:41.817Z,67.51
2018-07-20T22:23:09.843Z,67.79
2018-07-20T22:25:37.721Z,69.04
2018-07-20T22:28:05.618Z,69.01
2018-07-20T22:30:33.536Z,69.38
2018-07-20T22:33:01.965Z,68.21
2018-07-20T22:35:29.922Z,69.15
2018-07-20T22:38:12.805Z,68.83
2018-07-20T22:40:40.817Z,68.84
2018-07-20T22:43:08.697Z,68.91
2018-07-20T22:45:36.650Z,68.23
2018-07-20T22:48:04.555Z,67.87
2018-07-20T22:50:32.457Z,68.76
2018-07-20T22:53:00.373Z,68.96
2018-07-20T22:55:28.244Z,69.22
2018-07-20T22:57:56.140Z,67.71
2018-07-20T23:00:24.724Z,67.43
2018-07-20T23:02:52.651Z,68.10
2018-07-20T23:05:20.510Z,68.99
2018-07-20T23:07:48.419Z,69.55
2018-07-20T23:10:16.418Z,69.34
2018-07-20T23:12:44.314Z,69.62
2018-07-20T23:15:12.244Z,69.96
2018-07-20T23:17:40.166Z,70.72
2018-07-20T23:20:08.037Z,71.98
2018-07-20T23:22:36.168Z,73.49
2018-07-20T23:25:04.374Z,73.82
2018-07-20T23:27:32.242Z,73.81
2018-07-20T23:30:00.149Z,73.60
2018-07-20T23:32:28.022Z,73.30
2018-07-20T23:34:55.884Z,73.18
2018-07-20T23:37:23.799Z,73.84
2018-07-20T23:39:52.027Z,73.99
2018-07-20T23:42:19.962Z,75.26
2018-07-20T23:44:48.091Z,76.26
2018-07-20T23:47:15.941Z,77.31
2018-07-20T23:49:43.833Z,78.47
2018-07-20T23:52:11.736Z,78.73
2018-07-20T23:54:39.604Z,78.69
2018-07-20T23:57:07.559Z,78.60
2018-07-20T23:59:35.463Z,78.64
